Terminal Aerodrome Forecast
Issued by NWS Grand Forks, ND

Home | Current Version | Previous Version | Graphics & Text | Print | Product List | Glossary On
Versions: 1 2 3 4 5 6 7 8 9 10 11 12
000
FTUS43 KFGF 221132
TAFFAR
TAF
KFAR 221132Z 2212/2312 17004KT P6SM FEW250
     FM221600 18013G22KT P6SM FEW150
     FM230000 18010KT P6SM FEW150=

USA.gov is the U.S. government's official web portal to all federal, state and local government web resources and services.